Time;durP1;ratioP1;P1;durP2;ratioP2;P2;SDS_P1;SDS_P2;PMS_P1;PMS_P2;Temp;Humidity;BMP_temperature;BMP_pressure;BME280_temperature;BME280_humidity;BME280_pressure;Samples;Min_cycle;Max_cycle;Signal;HPM_P1;HPM_P2
2022/03/03 00:00:22;;;;;;;1.67;1.57;;;0.60;99.90;;;;;;4989589;28;20459;-84
2022/03/03 00:02:47;;;;;;;1.10;1.00;;;0.50;99.90;;;;;;4975371;28;20315;-83
2022/03/03 00:05:14;;;;;;;1.07;0.97;;;0.50;99.90;;;;;;4986599;28;20531;-84
2022/03/03 00:07:40;;;;;;;1.00;0.90;;;0.40;99.90;;;;;;4994054;28;20185;-84
2022/03/03 00:10:07;;;;;;;1.20;1.10;;;0.50;99.90;;;;;;4973451;28;21003;-83
2022/03/03 00:12:33;;;;;;;1.57;1.47;;;0.40;99.90;;;;;;4991432;28;20807;-84
2022/03/03 00:14:59;;;;;;;4.50;2.40;;;0.40;99.90;;;;;;4992196;28;20494;-83
2022/03/03 00:17:24;;;;;;;1.10;1.00;;;0.40;99.90;;;;;;4992951;28;20447;-84
2022/03/03 00:19:50;;;;;;;1.37;1.27;;;0.30;99.90;;;;;;4991410;28;20197;-84
2022/03/03 00:22:16;;;;;;;1.10;1.00;;;0.30;99.90;;;;;;4992919;28;20220;-83
2022/03/03 00:24:42;;;;;;;1.43;1.33;;;0.40;99.90;;;;;;4987681;28;20193;-83
2022/03/03 00:27:08;;;;;;;1.13;1.03;;;0.40;99.90;;;;;;4986826;28;20228;-84
2022/03/03 00:29:33;;;;;;;1.50;1.40;;;0.20;99.90;;;;;;4993310;28;20467;-84
2022/03/03 00:31:59;;;;;;;1.07;0.97;;;0.20;99.90;;;;;;4991634;28;20193;-83
2022/03/03 00:34:24;;;;;;;1.83;1.37;;;0.20;99.90;;;;;;4970241;28;20236;-83
2022/03/03 00:36:50;;;;;;;1.80;1.70;;;0.30;99.90;;;;;;4990180;28;20275;-84
2022/03/03 00:39:15;;;;;;;1.10;1.00;;;0.20;99.90;;;;;;4992814;28;20193;-84
2022/03/03 00:41:41;;;;;;;3.23;2.43;;;0.20;99.90;;;;;;4993027;28;20539;-84
2022/03/03 00:44:09;;;;;;;1.07;0.97;;;0.20;99.90;;;;;;4991770;28;20189;-84
2022/03/03 00:46:38;;;;;;;2.30;2.20;;;0.10;99.90;;;;;;4991076;28;21237;-84
2022/03/03 00:49:05;;;;;;;1.60;1.50;;;0.10;99.90;;;;;;4992820;28;20432;-84
2022/03/03 00:51:31;;;;;;;2.20;1.57;;;0.20;99.90;;;;;;4989562;28;20464;-84
2022/03/03 00:53:57;;;;;;;1.00;0.90;;;0.20;99.90;;;;;;4989079;28;20441;-83
2022/03/03 00:56:23;;;;;;;2.57;2.37;;;0.20;99.90;;;;;;4992783;28;20944;-84
2022/03/03 00:58:48;;;;;;;1.30;1.20;;;0.20;99.90;;;;;;4992627;28;20432;-85
2022/03/03 01:01:18;;;;;;;1.10;1.00;;;0.20;99.90;;;;;;4992144;28;20197;-84
2022/03/03 01:03:44;;;;;;;1.10;1.00;;;0.20;99.90;;;;;;4973994;28;20232;-84
2022/03/03 01:06:11;;;;;;;1.10;1.00;;;0.40;99.90;;;;;;4989946;28;20955;-84
2022/03/03 01:08:37;;;;;;;1.20;1.10;;;0.20;99.90;;;;;;4974622;28;20810;-84
2022/03/03 01:11:04;;;;;;;1.10;1.00;;;0.20;99.90;;;;;;4972993;28;20472;-84
2022/03/03 01:13:30;;;;;;;1.10;1.00;;;0.20;99.90;;;;;;4992161;28;20462;-83
2022/03/03 01:15:56;;;;;;;1.00;0.90;;;0.30;99.90;;;;;;4992586;28;20468;-84
2022/03/03 01:18:22;;;;;;;1.00;0.90;;;0.30;99.90;;;;;;4991539;28;20209;-84
2022/03/03 01:20:49;;;;;;;1.40;1.30;;;0.30;99.90;;;;;;4971412;28;20863;-83
2022/03/03 01:23:15;;;;;;;1.10;1.00;;;0.30;99.90;;;;;;4990953;28;20512;-84
2022/03/03 01:25:40;;;;;;;0.97;0.87;;;0.20;99.90;;;;;;4990537;28;20456;-84
2022/03/03 01:28:06;;;;;;;1.50;1.40;;;0.20;99.90;;;;;;4992308;28;20435;-84
2022/03/03 01:30:31;;;;;;;1.10;1.00;;;0.10;99.90;;;;;;4974044;28;20213;-83
2022/03/03 01:32:57;;;;;;;1.10;1.00;;;0.20;99.90;;;;;;4987185;28;20265;-84
2022/03/03 01:35:23;;;;;;;1.10;1.00;;;0.20;99.90;;;;;;4992822;28;20181;-84
2022/03/03 01:37:48;;;;;;;1.07;0.97;;;0.30;99.90;;;;;;4969622;28;20196;-84
2022/03/03 01:40:14;;;;;;;1.67;1.57;;;0.30;99.90;;;;;;4988664;28;20808;-84
2022/03/03 01:42:40;;;;;;;1.40;1.30;;;0.30;99.90;;;;;;4991190;28;20192;-84
2022/03/03 01:45:06;;;;;;;1.40;1.30;;;0.30;99.90;;;;;;4989737;28;20197;-83
2022/03/03 01:47:32;;;;;;;1.43;1.33;;;0.40;99.90;;;;;;4987063;28;20464;-84
2022/03/03 01:49:58;;;;;;;1.20;1.10;;;0.40;99.90;;;;;;4990782;28;20515;-84
2022/03/03 01:52:25;;;;;;;1.10;1.00;;;0.50;99.90;;;;;;4989431;28;20819;-83
2022/03/03 01:54:51;;;;;;;1.10;1.00;;;0.60;99.90;;;;;;4990009;28;20460;-83
2022/03/03 01:57:18;;;;;;;1.10;1.00;;;0.60;99.90;;;;;;4990187;28;20443;-84
2022/03/03 01:59:44;;;;;;;1.10;1.00;;;0.50;99.90;;;;;;4971681;28;20475;-84
2022/03/03 02:02:10;;;;;;;3.20;2.90;;;0.60;99.90;;;;;;4984438;28;20914;-83
2022/03/03 02:04:40;;;;;;;1.00;0.90;;;0.60;99.90;;;;;;4991246;28;20197;-83
2022/03/03 02:07:06;;;;;;;1.30;1.20;;;0.60;99.90;;;;;;4988192;28;20527;-83
2022/03/03 02:09:33;;;;;;;1.00;0.90;;;0.60;99.90;;;;;;4990890;28;20976;-84
2022/03/03 02:11:59;;;;;;;1.20;1.10;;;0.50;99.90;;;;;;4971982;28;20980;-84
2022/03/03 02:14:24;;;;;;;2.83;2.53;;;0.50;99.90;;;;;;4990107;28;20480;-84
2022/03/03 02:16:50;;;;;;;1.10;1.00;;;0.40;99.90;;;;;;4968484;28;20196;-84
2022/03/03 02:19:17;;;;;;;1.00;0.90;;;0.50;99.90;;;;;;4989006;28;20193;-84
2022/03/03 02:21:47;;;;;;;2.97;2.80;;;0.50;99.90;;;;;;4990842;28;20536;-84
2022/03/03 02:24:14;;;;;;;1.20;1.10;;;0.50;99.90;;;;;;4976649;28;20454;-84
2022/03/03 02:26:40;;;;;;;14.60;2.37;;;0.50;99.90;;;;;;4989249;28;20837;-84
2022/03/03 02:29:06;;;;;;;0.80;0.80;;;0.50;99.90;;;;;;4973838;28;20500;-83
2022/03/03 02:31:32;;;;;;;1.00;0.90;;;0.60;99.90;;;;;;4987641;28;20518;-83
2022/03/03 02:33:58;;;;;;;1.00;0.90;;;0.50;99.90;;;;;;4973009;28;20452;-83
2022/03/03 02:36:27;;;;;;;2.10;1.30;;;0.50;99.90;;;;;;4990019;28;20849;-83
2022/03/03 02:38:55;;;;;;;0.80;0.80;;;0.50;99.90;;;;;;4973098;28;20428;-83
2022/03/03 02:41:21;;;;;;;10.00;2.23;;;0.60;99.90;;;;;;4989041;28;20552;-83
2022/03/03 02:43:47;;;;;;;1.10;1.00;;;0.60;99.90;;;;;;4986949;28;20539;-83
2022/03/03 02:46:13;;;;;;;1.27;1.17;;;0.60;99.90;;;;;;4969735;28;20889;-84
2022/03/03 02:48:39;;;;;;;1.03;0.93;;;0.50;99.90;;;;;;4986534;28;20199;-83
2022/03/03 02:51:05;;;;;;;2.17;2.07;;;0.60;99.90;;;;;;4987394;28;20484;-83
2022/03/03 02:53:31;;;;;;;1.00;0.90;;;0.60;99.90;;;;;;4986738;28;20531;-83
2022/03/03 02:55:57;;;;;;;1.03;0.93;;;0.50;99.90;;;;;;4990619;28;20873;-83
2022/03/03 02:58:22;;;;;;;1.00;0.90;;;0.60;99.90;;;;;;4989295;28;20697;-83
2022/03/03 03:00:48;;;;;;;3.50;3.30;;;0.50;99.90;;;;;;4987602;28;20682;-84
2022/03/03 03:03:15;;;;;;;1.67;1.57;;;0.50;99.90;;;;;;4989894;28;20590;-83
2022/03/03 03:05:41;;;;;;;1.57;1.40;;;0.40;99.90;;;;;;4988116;28;20705;-84
2022/03/03 03:08:07;;;;;;;1.10;1.00;;;0.40;99.90;;;;;;4988959;28;20448;-84
2022/03/03 03:10:33;;;;;;;1.00;0.90;;;0.40;99.90;;;;;;4972809;28;20506;-84
2022/03/03 03:12:59;;;;;;;1.00;0.90;;;0.30;99.90;;;;;;4990486;28;20935;-83
2022/03/03 03:15:24;;;;;;;2.03;1.90;;;0.40;99.90;;;;;;4989913;28;20196;-83
2022/03/03 03:17:50;;;;;;;1.10;1.00;;;0.40;99.90;;;;;;4987298;28;20204;-84
2022/03/03 03:20:16;;;;;;;1.20;1.10;;;0.40;99.90;;;;;;4990120;28;20761;-84
2022/03/03 03:22:42;;;;;;;2.87;2.77;;;0.10;99.90;;;;;;4989380;28;20444;-84
2022/03/03 03:25:10;;;;;;;1.43;1.33;;;0.30;99.90;;;;;;4971208;28;20276;-84
2022/03/03 03:27:40;;;;;;;1.00;0.90;;;0.20;99.90;;;;;;4971758;28;20195;-84
2022/03/03 03:30:08;;;;;;;2.30;1.17;;;0.10;99.90;;;;;;4985995;28;20526;-83
2022/03/03 03:32:36;;;;;;;1.10;1.00;;;0.10;99.90;;;;;;4984300;28;20995;-84
2022/03/03 03:35:40;;;;;;;0.83;0.83;;;0.00;99.90;;;;;;4985172;28;20792;-84
2022/03/03 03:38:45;;;;;;;1.03;0.93;;;-0.10;99.90;;;;;;4977527;28;20458;-84
2022/03/03 03:41:10;;;;;;;1.30;1.20;;;-0.10;99.90;;;;;;4980417;28;20432;-84
2022/03/03 03:44:19;;;;;;;1.10;1.00;;;-0.20;99.90;;;;;;4989249;28;21032;-84
2022/03/03 03:52:45;;;;;;;1.10;1.00;;;-0.10;99.90;;;;;;4985161;28;20462;-84
2022/03/03 03:55:15;;;;;;;1.10;1.00;;;-0.10;99.90;;;;;;4988101;28;20432;-84
2022/03/03 03:58:45;;;;;;;1.00;0.90;;;-0.20;99.90;;;;;;4988056;28;20224;-84
2022/03/03 04:01:17;;;;;;;1.10;1.00;;;-0.30;99.90;;;;;;4904653;29;20538;-83
2022/03/03 04:03:53;;;;;;;1.10;1.00;;;-0.30;99.90;;;;;;4974326;28;20508;-84
2022/03/03 04:07:00;;;;;;;1.10;1.00;;;-0.20;99.90;;;;;;4972765;28;20475;-84
2022/03/03 04:09:25;;;;;;;1.10;1.00;;;-0.10;99.90;;;;;;4988607;28;20503;-84
2022/03/03 04:11:51;;;;;;;1.10;1.00;;;-0.20;99.90;;;;;;4989646;28;20467;-84
2022/03/03 04:14:19;;;;;;;1.20;1.10;;;-0.40;99.90;;;;;;4988105;28;20228;-84
2022/03/03 04:16:45;;;;;;;1.10;1.00;;;-0.40;99.90;;;;;;4989891;28;20753;-84
2022/03/03 04:19:10;;;;;;;2.80;1.73;;;-0.50;99.90;;;;;;4973790;28;20523;-84
2022/03/03 04:27:57;;;;;;;;;;;;;;;;;;;;;
2022/03/03 04:30:23;;;;;;;1.17;1.07;;;-0.50;99.90;;;;;;4992542;28;20498;-84
2022/03/03 04:32:49;;;;;;;0.80;0.80;;;-0.60;99.90;;;;;;4992577;28;20523;-84
2022/03/03 04:35:28;;;;;;;1.10;1.00;;;-0.60;99.90;;;;;;4989379;28;20285;-84
2022/03/03 04:38:31;;;;;;;3.20;1.93;;;-0.40;99.90;;;;;;4972457;28;20185;-84
2022/03/03 04:45:34;;;;;;;1.13;1.03;;;-0.40;99.90;;;;;;4820746;29;20521;-84
2022/03/03 04:54:32;;;;;;;1.20;1.10;;;-0.40;99.90;;;;;;4990913;28;20447;-84
2022/03/03 04:57:09;;;;;;;1.20;1.10;;;-0.30;99.90;;;;;;4973318;28;20436;-84
2022/03/03 04:59:34;;;;;;;2.70;2.50;;;-0.20;99.90;;;;;;4986377;28;20432;-84
2022/03/03 05:02:00;;;;;;;1.20;1.10;;;-0.30;99.90;;;;;;4988717;28;20440;-84
2022/03/03 05:04:26;;;;;;;1.30;1.20;;;-0.30;99.90;;;;;;4992424;28;20200;-84
2022/03/03 05:07:24;;;;;;;1.10;1.00;;;-0.20;99.90;;;;;;4970585;28;20451;-85
2022/03/03 05:10:18;;;;;;;1.20;1.10;;;-0.40;99.90;;;;;;4991621;28;20665;-85
2022/03/03 05:16:21;;;;;;;;;;;;;;;;;;;;;
2022/03/03 05:19:57;;;;;;;1.10;1.00;;;-0.50;99.90;;;;;;4910475;29;20452;-84
2022/03/03 05:29:56;;;;;;;3.47;2.40;;;-0.30;99.90;;;;;;4941512;29;21051;-84
2022/03/03 05:32:25;;;;;;;1.20;1.10;;;-0.50;99.90;;;;;;4932218;29;20450;-84
2022/03/03 05:34:51;;;;;;;1.20;1.10;;;-0.40;99.90;;;;;;4971576;28;20522;-84
2022/03/03 05:37:24;;;;;;;0.97;0.90;;;-0.30;99.90;;;;;;4990727;28;20948;-84
2022/03/03 05:39:55;;;;;;;1.20;1.10;;;-0.30;99.90;;;;;;4984994;28;20961;-84
2022/03/03 05:42:22;;;;;;;1.10;1.00;;;-0.20;99.90;;;;;;4991790;28;20482;-84
2022/03/03 05:46:08;;;;;;;1.77;1.67;;;-0.20;99.90;;;;;;4987683;28;20457;-84
2022/03/03 05:48:56;;;;;;;1.10;1.00;;;-0.20;99.90;;;;;;4969329;28;20444;-84
2022/03/03 05:51:21;;;;;;;1.10;1.00;;;-0.20;99.90;;;;;;4965334;28;20483;-83
2022/03/03 05:53:53;;;;;;;1.30;1.20;;;-0.10;99.90;;;;;;4974516;28;20428;-85
2022/03/03 05:56:20;;;;;;;1.10;1.00;;;-0.20;99.90;;;;;;4972173;28;20196;-85
2022/03/03 05:58:51;;;;;;;1.13;1.03;;;-0.10;99.90;;;;;;4974893;28;20566;-85
2022/03/03 06:01:17;;;;;;;6.50;2.60;;;-0.10;99.90;;;;;;4966492;28;20974;-85
2022/03/03 06:03:46;;;;;;;1.20;1.10;;;-0.10;99.90;;;;;;4991208;28;20483;-84
2022/03/03 06:06:17;;;;;;;1.30;1.20;;;0.00;99.90;;;;;;4986803;28;20993;-84
2022/03/03 06:09:15;;;;;;;1.10;1.00;;;0.00;99.90;;;;;;4986718;28;20432;-85
2022/03/03 06:12:03;;;;;;;1.10;1.00;;;0.00;99.90;;;;;;4986142;28;20471;-84
2022/03/03 06:15:01;;;;;;;1.30;1.20;;;0.10;99.90;;;;;;4969019;28;21037;-84
2022/03/03 06:17:27;;;;;;;1.17;1.07;;;0.10;99.90;;;;;;4983371;28;20444;-85
2022/03/03 06:19:54;;;;;;;1.10;1.00;;;0.10;99.90;;;;;;4986320;28;20452;-84
2022/03/03 06:22:20;;;;;;;1.50;1.40;;;0.10;99.90;;;;;;4988881;28;20252;-84
2022/03/03 06:24:46;;;;;;;1.70;1.60;;;0.10;99.90;;;;;;4990532;28;20444;-84
2022/03/03 06:27:12;;;;;;;1.13;1.03;;;0.20;99.90;;;;;;4989735;28;20970;-83
2022/03/03 06:29:40;;;;;;;2.80;1.60;;;0.10;99.90;;;;;;4986511;28;20563;-84
2022/03/03 06:32:07;;;;;;;9.57;2.50;;;0.10;99.90;;;;;;4982519;28;20821;-84
2022/03/03 06:34:32;;;;;;;1.10;1.00;;;0.20;99.90;;;;;;4988815;28;20542;-84
2022/03/03 06:36:58;;;;;;;1.03;0.93;;;0.30;99.90;;;;;;4987100;28;20544;-83
2022/03/03 06:39:24;;;;;;;1.53;1.43;;;0.30;99.90;;;;;;4972013;28;20181;-84
2022/03/03 06:41:50;;;;;;;1.10;1.00;;;0.20;99.90;;;;;;4989738;28;20193;-84
2022/03/03 06:44:15;;;;;;;1.10;1.00;;;0.30;99.90;;;;;;4990232;28;20181;-84
2022/03/03 06:46:42;;;;;;;1.80;1.70;;;0.50;99.90;;;;;;4986673;28;20518;-84
2022/03/03 06:49:07;;;;;;;1.10;1.00;;;0.50;99.90;;;;;;4981799;28;20213;-83
2022/03/03 06:51:39;;;;;;;1.10;1.00;;;0.50;99.90;;;;;;4983952;28;20483;-83
2022/03/03 06:54:08;;;;;;;1.10;1.00;;;0.60;99.90;;;;;;4975434;28;20193;-83
2022/03/03 06:56:35;;;;;;;1.57;1.47;;;0.70;99.90;;;;;;4989829;28;20452;-83
2022/03/03 06:59:02;;;;;;;1.10;1.00;;;0.60;99.90;;;;;;4985679;28;20801;-83
2022/03/03 07:01:28;;;;;;;1.00;0.90;;;0.60;99.90;;;;;;4985518;28;20440;-83
2022/03/03 07:03:56;;;;;;;1.50;1.40;;;0.60;99.90;;;;;;4987779;28;20488;-83
2022/03/03 07:06:22;;;;;;;1.27;1.17;;;0.70;99.90;;;;;;4988175;28;20432;-83
2022/03/03 07:08:53;;;;;;;1.20;1.10;;;0.70;99.90;;;;;;4989372;28;20871;-82
2022/03/03 07:11:19;;;;;;;1.10;1.00;;;0.80;99.90;;;;;;4990389;28;20505;-83
2022/03/03 07:13:46;;;;;;;1.20;1.10;;;0.90;99.90;;;;;;4990191;28;20506;-83
2022/03/03 07:16:30;;;;;;;1.00;0.90;;;1.00;99.90;;;;;;4990554;28;20475;-83
2022/03/03 07:19:02;;;;;;;0.90;0.80;;;1.00;99.90;;;;;;4982254;28;20447;-83
2022/03/03 07:22:00;;;;;;;1.10;1.00;;;1.00;99.90;;;;;;4987206;28;20483;-83
2022/03/03 07:24:30;;;;;;;1.33;1.23;;;1.00;99.90;;;;;;4956683;28;20895;-83
2022/03/03 07:27:04;;;;;;;5.70;2.50;;;1.10;99.90;;;;;;4988316;28;20448;-83
2022/03/03 07:29:32;;;;;;;1.10;1.00;;;1.00;99.90;;;;;;4979838;28;20469;-83
2022/03/03 07:32:04;;;;;;;1.20;1.10;;;1.10;99.90;;;;;;4982469;28;20543;-82
2022/03/03 07:34:33;;;;;;;1.00;0.90;;;1.10;99.90;;;;;;4979658;28;20448;-82
2022/03/03 07:37:07;;;;;;;1.00;0.90;;;1.20;99.90;;;;;;4977500;28;20837;-83
2022/03/03 07:39:40;;;;;;;1.63;1.53;;;1.10;99.90;;;;;;4989796;28;20931;-82
2022/03/03 07:42:11;;;;;;;1.00;0.90;;;1.20;99.90;;;;;;4969358;28;20948;-83
2022/03/03 07:44:37;;;;;;;1.30;1.20;;;1.20;99.90;;;;;;4987522;28;20467;-83
2022/03/03 07:47:02;;;;;;;2.43;2.23;;;1.20;99.90;;;;;;4965832;28;20942;-85
2022/03/03 07:49:29;;;;;;;1.40;1.30;;;1.30;99.90;;;;;;4976691;28;20279;-84
2022/03/03 07:51:56;;;;;;;1.77;1.67;;;1.40;99.90;;;;;;4985598;28;20235;-84
2022/03/03 07:54:22;;;;;;;4.43;4.03;;;1.40;99.90;;;;;;4990063;28;20527;-84
2022/03/03 07:56:55;;;;;;;3.53;3.23;;;1.50;99.90;;;;;;4973922;28;20583;-82
2022/03/03 07:59:25;;;;;;;1.00;0.90;;;1.50;99.90;;;;;;4989758;28;20196;-83
2022/03/03 08:01:54;;;;;;;2.33;2.23;;;1.60;99.90;;;;;;4986657;28;20452;-83
2022/03/03 08:04:23;;;;;;;1.37;1.27;;;1.70;99.90;;;;;;4989936;28;20450;-83
2022/03/03 08:06:52;;;;;;;1.00;0.90;;;1.80;99.90;;;;;;4994105;28;20443;-83
2022/03/03 08:09:21;;;;;;;5.70;2.30;;;1.80;99.90;;;;;;4975423;28;20459;-83
2022/03/03 08:11:47;;;;;;;5.57;3.70;;;1.90;99.90;;;;;;4992557;28;20522;-83
2022/03/03 08:14:13;;;;;;;0.90;0.80;;;1.90;99.90;;;;;;4993137;28;20455;-82
2022/03/03 08:16:40;;;;;;;1.07;0.97;;;1.90;99.90;;;;;;4984550;28;20471;-82
2022/03/03 08:19:07;;;;;;;2.70;1.30;;;1.90;99.90;;;;;;4989351;28;20189;-83
2022/03/03 08:21:35;;;;;;;2.30;1.33;;;1.90;99.90;;;;;;4991483;28;20817;-83
2022/03/03 08:24:02;;;;;;;1.00;0.90;;;1.90;99.90;;;;;;4983819;28;20452;-82
2022/03/03 08:26:32;;;;;;;1.17;1.07;;;2.00;99.90;;;;;;4994972;28;20443;-83
2022/03/03 08:28:58;;;;;;;2.60;2.40;;;2.10;99.90;;;;;;4990884;28;20451;-83
2022/03/03 08:31:32;;;;;;;1.53;1.43;;;2.10;99.90;;;;;;4991847;28;20492;-83
2022/03/03 08:34:06;;;;;;;0.90;0.80;;;2.20;99.90;;;;;;4965910;28;20646;-83
2022/03/03 08:36:54;;;;;;;0.90;0.80;;;2.10;99.90;;;;;;4988507;28;20447;-82
2022/03/03 08:39:23;;;;;;;2.13;1.90;;;2.20;99.90;;;;;;4994844;28;20521;-83
2022/03/03 08:41:56;;;;;;;0.87;0.80;;;2.10;99.90;;;;;;4986044;28;20456;-82
2022/03/03 08:44:30;;;;;;;0.80;0.70;;;2.20;99.90;;;;;;4990653;28;20948;-83
2022/03/03 08:46:57;;;;;;;1.40;1.30;;;2.30;99.90;;;;;;4981824;28;20437;-84
2022/03/03 08:49:28;;;;;;;1.43;1.33;;;2.20;99.90;;;;;;4989094;28;20434;-83
2022/03/03 08:51:54;;;;;;;0.90;0.80;;;2.20;99.90;;;;;;4970732;28;20876;-83
2022/03/03 08:54:21;;;;;;;0.80;0.70;;;2.20;99.90;;;;;;4971092;28;20440;-83
2022/03/03 08:56:47;;;;;;;0.90;0.80;;;2.20;99.90;;;;;;4986556;28;20448;-83
2022/03/03 08:59:12;;;;;;;1.00;0.90;;;2.10;99.90;;;;;;4987667;28;20439;-84
2022/03/03 09:01:38;;;;;;;1.23;1.13;;;2.20;99.90;;;;;;4976096;28;20840;-83
2022/03/03 09:04:03;;;;;;;1.10;1.00;;;2.20;99.90;;;;;;4984078;28;20236;-83
2022/03/03 09:06:31;;;;;;;1.10;1.00;;;2.20;99.90;;;;;;4987736;28;20185;-83
2022/03/03 09:08:57;;;;;;;0.90;0.80;;;2.10;99.90;;;;;;4991538;28;20287;-82
2022/03/03 09:11:23;;;;;;;1.00;0.90;;;2.20;99.90;;;;;;4993177;28;20487;-83
2022/03/03 09:13:48;;;;;;;1.00;0.90;;;2.30;99.90;;;;;;4990670;28;20452;-84
2022/03/03 09:16:17;;;;;;;1.43;1.33;;;2.30;99.90;;;;;;4974205;28;20204;-81
2022/03/03 09:18:46;;;;;;;0.90;0.80;;;2.30;99.90;;;;;;4974678;28;20557;-83
2022/03/03 09:21:12;;;;;;;0.90;0.80;;;2.40;99.90;;;;;;4992275;28;21200;-83
2022/03/03 09:23:38;;;;;;;1.00;0.90;;;2.40;99.90;;;;;;4991363;28;20444;-82
2022/03/03 09:26:04;;;;;;;1.10;1.00;;;2.40;99.90;;;;;;4990924;28;20187;-83
2022/03/03 09:28:29;;;;;;;0.90;0.80;;;2.40;99.90;;;;;;4974476;28;20204;-83
2022/03/03 09:30:56;;;;;;;1.00;0.90;;;2.40;99.90;;;;;;4988767;28;20221;-82
2022/03/03 09:33:23;;;;;;;0.87;0.80;;;2.40;99.90;;;;;;4988345;28;20267;-82
2022/03/03 09:35:49;;;;;;;0.90;0.80;;;2.50;99.90;;;;;;4987586;28;20533;-83
2022/03/03 09:38:15;;;;;;;2.73;2.50;;;2.50;99.90;;;;;;4972607;28;20456;-82
2022/03/03 09:40:41;;;;;;;0.90;0.80;;;2.50;99.90;;;;;;4971897;28;20459;-82
2022/03/03 09:43:07;;;;;;;0.90;0.80;;;2.60;99.90;;;;;;4966617;28;20452;-81
2022/03/03 09:45:34;;;;;;;1.00;0.90;;;2.70;99.90;;;;;;4970779;28;20453;-81
2022/03/03 09:48:03;;;;;;;1.13;1.03;;;2.80;99.90;;;;;;4992404;28;20433;-81
2022/03/03 09:50:29;;;;;;;1.90;1.20;;;2.90;99.90;;;;;;4991824;28;20480;-80
2022/03/03 09:52:55;;;;;;;1.70;1.60;;;2.90;99.90;;;;;;4983718;28;20447;-81
2022/03/03 09:55:22;;;;;;;0.83;0.80;;;2.90;99.90;;;;;;4990622;28;20497;-80
2022/03/03 09:57:49;;;;;;;1.63;1.53;;;2.90;99.90;;;;;;4983630;28;20196;-80
2022/03/03 10:00:15;;;;;;;1.00;0.90;;;3.00;99.90;;;;;;4985338;28;21151;-80
2022/03/03 10:03:15;;;;;;;1.00;0.90;;;3.00;99.90;;;;;;4992017;28;20476;-81
2022/03/03 10:05:47;;;;;;;0.90;0.80;;;3.00;99.90;;;;;;4922166;28;20475;-80
2022/03/03 10:08:20;;;;;;;1.00;0.90;;;3.00;99.90;;;;;;4991104;28;20864;-80
2022/03/03 10:10:48;;;;;;;0.90;0.80;;;3.00;99.90;;;;;;4986287;28;20976;-81
2022/03/03 10:13:17;;;;;;;0.90;0.80;;;3.10;99.90;;;;;;4988312;28;20471;-81
2022/03/03 10:15:54;;;;;;;0.90;0.77;;;3.10;99.90;;;;;;4989378;28;20432;-80
2022/03/03 10:18:21;;;;;;;0.90;0.80;;;3.00;99.90;;;;;;4988466;28;20440;-80
2022/03/03 10:20:59;;;;;;;1.00;0.90;;;2.90;99.90;;;;;;4990513;28;20448;-80
2022/03/03 10:23:34;;;;;;;0.90;0.73;;;3.20;99.90;;;;;;4991198;28;20443;-80
2022/03/03 10:26:02;;;;;;;0.83;0.70;;;3.30;99.90;;;;;;4989282;28;20920;-80
2022/03/03 10:28:30;;;;;;;1.00;0.90;;;3.20;99.90;;;;;;4989227;28;20436;-80
2022/03/03 10:31:07;;;;;;;1.10;1.00;;;3.20;99.90;;;;;;4973235;28;20488;-80
2022/03/03 10:33:44;;;;;;;0.93;0.83;;;3.30;99.90;;;;;;4987380;28;20439;-80
2022/03/03 10:36:23;;;;;;;0.90;0.80;;;3.20;99.90;;;;;;4989013;28;20458;-80
2022/03/03 10:39:03;;;;;;;1.53;1.43;;;3.10;99.90;;;;;;4982940;28;20447;-80
2022/03/03 10:41:35;;;;;;;0.90;0.77;;;3.20;99.90;;;;;;4972158;28;20444;-80
2022/03/03 10:44:04;;;;;;;0.90;0.80;;;3.30;99.90;;;;;;4989996;28;20475;-80
2022/03/03 10:46:30;;;;;;;0.90;0.80;;;3.30;99.90;;;;;;4984520;28;20479;-80
2022/03/03 10:48:56;;;;;;;0.90;0.80;;;3.10;99.90;;;;;;4987097;28;20478;-80
2022/03/03 10:51:24;;;;;;;0.80;0.70;;;3.10;99.90;;;;;;4988498;28;20980;-80
2022/03/03 10:53:57;;;;;;;1.03;0.93;;;3.10;99.90;;;;;;4990382;28;20213;-80
2022/03/03 10:56:23;;;;;;;0.90;0.80;;;3.20;99.90;;;;;;4988742;28;20460;-80
2022/03/03 10:58:57;;;;;;;1.30;1.20;;;3.20;99.90;;;;;;4990612;28;20477;-81
2022/03/03 11:01:25;;;;;;;0.90;0.70;;;3.00;99.90;;;;;;4973597;28;20192;-80
2022/03/03 11:03:53;;;;;;;0.90;0.80;;;3.10;99.90;;;;;;4989869;28;20847;-80
2022/03/03 11:06:24;;;;;;;0.87;0.70;;;3.00;99.90;;;;;;4987987;28;20440;-80
2022/03/03 11:08:52;;;;;;;1.00;0.90;;;3.00;99.90;;;;;;4986525;28;20586;-80
2022/03/03 11:11:20;;;;;;;0.90;0.80;;;3.20;99.90;;;;;;4980367;28;20581;-80
2022/03/03 11:13:49;;;;;;;0.90;0.80;;;3.20;99.90;;;;;;4987716;28;20452;-79
2022/03/03 11:16:16;;;;;;;0.90;0.80;;;3.20;99.90;;;;;;4984528;28;20971;-79
2022/03/03 11:18:42;;;;;;;0.93;0.87;;;3.20;99.90;;;;;;4985898;28;20432;-83
2022/03/03 11:21:08;;;;;;;1.13;1.03;;;3.10;99.90;;;;;;4970584;28;20446;-83
2022/03/03 11:23:51;;;;;;;0.90;0.77;;;3.20;99.90;;;;;;4971154;28;20240;-83
2022/03/03 11:26:22;;;;;;;1.20;1.10;;;3.10;99.90;;;;;;4987843;28;20431;-83
2022/03/03 11:29:11;;;;;;;0.90;0.80;;;3.10;99.90;;;;;;4984396;28;20531;-83
2022/03/03 11:31:38;;;;;;;0.87;0.80;;;3.20;99.90;;;;;;4994144;28;20883;-83
2022/03/03 11:34:23;;;;;;;0.93;0.83;;;3.20;99.90;;;;;;4994036;28;20439;-83
2022/03/03 11:36:57;;;;;;;0.90;0.80;;;3.20;99.90;;;;;;4971829;28;20429;-83
2022/03/03 11:39:41;;;;;;;1.07;0.97;;;3.30;99.90;;;;;;4987987;28;20482;-83
2022/03/03 11:42:26;;;;;;;1.00;0.90;;;3.30;99.90;;;;;;4984838;28;20441;-82
2022/03/03 11:45:11;;;;;;;1.00;0.90;;;3.30;99.90;;;;;;4988629;28;20793;-83
2022/03/03 11:47:41;;;;;;;0.87;0.70;;;3.40;99.90;;;;;;4993781;28;20504;-83
2022/03/03 11:50:19;;;;;;;1.10;1.00;;;3.40;99.90;;;;;;4989803;28;21010;-83
2022/03/03 11:52:50;;;;;;;3.43;1.17;;;3.60;99.90;;;;;;4992764;28;20455;-84
2022/03/03 11:55:43;;;;;;;0.80;0.70;;;3.50;99.90;;;;;;4989917;28;20439;-84
2022/03/03 11:58:10;;;;;;;1.37;1.23;;;3.80;99.90;;;;;;4985057;28;20858;-83
2022/03/03 12:00:42;;;;;;;0.90;0.80;;;3.80;99.90;;;;;;4971301;28;21373;-83
2022/03/03 12:03:11;;;;;;;1.53;1.37;;;3.90;99.90;;;;;;4982263;28;20480;-84
2022/03/03 12:05:39;;;;;;;1.43;1.10;;;3.80;99.90;;;;;;4989804;28;20448;-83
2022/03/03 12:08:13;;;;;;;0.83;0.70;;;3.90;99.90;;;;;;4990688;28;20973;-83
2022/03/03 12:11:03;;;;;;;2.70;2.60;;;3.90;99.90;;;;;;4987137;28;20561;-83
2022/03/03 12:13:34;;;;;;;1.07;0.97;;;4.30;99.90;;;;;;4989124;28;20466;-81
2022/03/03 12:16:30;;;;;;;6.10;1.47;;;4.40;99.90;;;;;;4981346;28;20940;-82
2022/03/03 12:18:55;;;;;;;1.00;0.90;;;4.70;99.90;;;;;;4986834;28;20523;-83
2022/03/03 12:21:36;;;;;;;1.20;1.10;;;4.80;99.90;;;;;;4991323;28;21016;-83
2022/03/03 12:24:13;;;;;;;1.20;1.07;;;5.00;99.90;;;;;;4987337;28;20188;-83
2022/03/03 12:26:58;;;;;;;0.80;0.67;;;5.40;99.90;;;;;;4991765;28;20527;-83
2022/03/03 12:29:33;;;;;;;0.97;0.77;;;5.90;99.90;;;;;;4987140;28;20535;-83
2022/03/03 12:32:32;;;;;;;0.90;0.80;;;5.70;99.90;;;;;;4983580;28;20520;-84
2022/03/03 12:35:09;;;;;;;0.83;0.60;;;5.70;99.90;;;;;;4978777;28;20532;-84
2022/03/03 12:37:45;;;;;;;0.90;0.67;;;5.50;99.90;;;;;;4988095;28;20551;-84
2022/03/03 12:40:12;;;;;;;3.27;2.30;;;5.10;99.90;;;;;;4991335;28;20590;-84
2022/03/03 12:42:42;;;;;;;2.20;2.00;;;5.00;99.90;;;;;;4993519;28;20436;-84
2022/03/03 12:45:11;;;;;;;0.90;0.70;;;4.90;99.90;;;;;;4994048;28;20478;-84
2022/03/03 12:47:43;;;;;;;1.20;1.10;;;4.80;99.90;;;;;;4992138;28;20808;-84
2022/03/03 12:50:15;;;;;;;0.90;0.70;;;4.80;99.90;;;;;;4978526;28;20528;-84
2022/03/03 12:52:42;;;;;;;0.90;0.70;;;5.00;99.90;;;;;;4990594;28;20483;-84
2022/03/03 12:55:10;;;;;;;0.90;0.70;;;5.10;99.90;;;;;;4986111;28;20455;-80
2022/03/03 12:57:38;;;;;;;1.03;0.87;;;6.70;99.90;;;;;;4982192;28;20444;-80
2022/03/03 13:00:10;;;;;;;1.30;0.80;;;7.20;99.90;;;;;;4985483;28;20449;-80
2022/03/03 13:02:50;;;;;;;0.90;0.70;;;6.90;99.90;;;;;;4989817;28;20634;-83
2022/03/03 13:05:33;;;;;;;0.90;0.70;;;6.50;99.90;;;;;;4987306;28;20480;-82
2022/03/03 13:08:00;;;;;;;1.40;1.23;;;6.60;99.90;;;;;;4989252;28;20460;-82
2022/03/03 13:10:26;;;;;;;1.03;0.70;;;7.20;99.90;;;;;;4986137;28;20478;-82
2022/03/03 13:12:56;;;;;;;1.40;0.80;;;7.70;99.90;;;;;;4989363;28;20436;-83
2022/03/03 13:15:35;;;;;;;1.57;1.43;;;8.00;99.90;;;;;;4990082;28;20201;-81
2022/03/03 13:18:11;;;;;;;1.00;0.80;;;7.90;99.90;;;;;;4985760;28;20563;-82
2022/03/03 13:20:40;;;;;;;0.90;0.60;;;8.30;99.90;;;;;;4986619;28;20452;-82
2022/03/03 13:23:09;;;;;;;1.00;0.87;;;9.80;99.90;;;;;;4984825;28;20459;-82
2022/03/03 13:25:35;;;;;;;1.37;1.27;;;10.20;99.90;;;;;;4988550;28;20441;-80
2022/03/03 13:28:14;;;;;;;3.40;1.43;;;9.90;99.90;;;;;;4979138;28;20438;-81
2022/03/03 13:30:50;;;;;;;0.90;0.50;;;8.70;99.90;;;;;;4985407;28;20303;-81
2022/03/03 13:33:16;;;;;;;1.57;0.80;;;7.90;99.90;;;;;;4990749;28;20486;-81
2022/03/03 13:35:42;;;;;;;3.03;2.67;;;8.20;99.90;;;;;;4987867;28;20451;-82
2022/03/03 13:38:09;;;;;;;0.90;0.70;;;7.90;99.90;;;;;;4984597;28;20455;-81
2022/03/03 13:40:37;;;;;;;0.90;0.50;;;7.30;99.90;;;;;;4970549;28;20452;-82
2022/03/03 13:43:04;;;;;;;1.67;1.57;;;7.20;99.90;;;;;;4989158;28;20438;-83
2022/03/03 13:45:32;;;;;;;1.00;0.80;;;7.90;99.90;;;;;;4987581;28;20479;-80
2022/03/03 13:48:04;;;;;;;0.93;0.60;;;8.60;99.90;;;;;;4987067;28;20464;-82
2022/03/03 13:50:30;;;;;;;2.00;1.47;;;9.50;99.90;;;;;;4986193;28;20478;-78